X  CloseMetar Aviation Weather Data     KSDL Scottsdale Airport

Temperature

91°F Temperature

59°F Dewpoint

34% Humidity



Wind

 3 MPH

 5 KM/H

 1 M/S

 3 KTS



Calm
Due North
Current Conditions

Clear Clear
Pressure 1010.82 (hPa) - 29.85 (in)
Visibility 9.9 (mi) - 16 (km)
Airport
Airport-code KSDL

Location Scottsdale Airport 15 (mi)

Metar:
KSDL 151253Z VRB03KT 10SM CLR 33/15 A2985 RMK AO2 SLP075 T03280150

Time: 08-15-2020 05:53